Time;durP1;ratioP1;P1;durP2;ratioP2;P2;SDS_P1;SDS_P2;PMS_P1;PMS_P2;Temp;Humidity;BMP_temperature;BMP_pressure;BME280_temperature;BME280_humidity;BME280_pressure;Samples;Min_cycle;Max_cycle;Signal;HPM_P1;HPM_P2
2022/08/01 00:00:47;;;;;;;;;;;;;;;26.91;43.77;99827.03;2090290;28;19916;-44
2022/08/01 00:01:47;;;;;;;;;;;;;;;26.92;44.10;99824.06;2092118;28;19950;-43
2022/08/01 00:02:47;;;;;;;;;;;;;;;26.92;44.02;99825.94;2093957;28;19916;-43
2022/08/01 00:03:48;;;;;;;;;;;;;;;26.92;43.95;99823.19;2091658;28;19967;-44
2022/08/01 00:04:48;;;;;;;;;;;;;;;26.91;43.84;99825.09;2090030;28;19967;-43
2022/08/01 00:05:48;;;;;;;;;;;;;;;26.91;44.07;99825.09;2091593;28;19923;-46
2022/08/01 00:06:48;;;;;;;;;;;;;;;26.92;44.01;99829.59;2094703;28;19967;-43
2022/08/01 00:07:49;;;;;;;;;;;;;;;26.92;44.04;99835.13;2093028;28;19939;-43
2022/08/01 00:08:49;;;;;;;;;;;;;;;26.91;44.17;99827.03;2094806;28;19926;-44
2022/08/01 00:09:49;;;;;;;;;;;;;;;26.91;43.98;99825.09;2089637;28;19920;-44
2022/08/01 00:10:50;;;;;;;;;;;;;;;26.91;43.81;99825.09;2092400;28;20349;-43
2022/08/01 00:11:50;;;;;;;;;;;;;;;26.92;43.92;99828.72;2094646;28;20210;-44
2022/08/01 00:12:50;;;;;;;;;;;;;;;26.92;43.77;99824.06;2090646;28;19923;-44
2022/08/01 00:13:51;;;;;;;;;;;;;;;26.91;44.06;99827.88;2091977;28;19915;-44
2022/08/01 00:14:51;;;;;;;;;;;;;;;26.93;44.06;99819.38;2094314;28;20048;-43
2022/08/01 00:15:51;;;;;;;;;;;;;;;26.92;43.96;99823.19;2094275;28;19931;-43
2022/08/01 00:16:52;;;;;;;;;;;;;;;26.92;43.94;99824.06;2093565;28;19919;-43
2022/08/01 00:17:52;;;;;;;;;;;;;;;26.92;44.04;99825.94;2078169;28;19927;-43
2022/08/01 00:18:53;;;;;;;;;;;;;;;26.92;43.84;99821.28;2086853;28;19917;-43
2022/08/01 00:19:53;;;;;;;;;;;;;;;26.92;43.77;99825.94;2086166;28;19920;-42
2022/08/01 00:20:54;;;;;;;;;;;;;;;26.91;43.98;99822.34;2086422;28;19916;-42
2022/08/01 00:21:54;;;;;;;;;;;;;;;26.92;43.77;99823.19;2094508;28;20190;-43
2022/08/01 00:22:54;;;;;;;;;;;;;;;26.91;44.09;99825.09;2095850;28;19926;-44
2022/08/01 00:23:54;;;;;;;;;;;;;;;26.92;43.99;99812.13;2089080;28;19917;-42
2022/08/01 00:24:55;;;;;;;;;;;;;;;26.92;43.83;99813.00;2094375;28;19916;-42
2022/08/01 00:25:55;;;;;;;;;;;;;;;26.91;43.81;99811.28;2092022;28;19967;-43
2022/08/01 00:26:56;;;;;;;;;;;;;;;26.91;43.92;99810.44;2092728;28;19955;-42
2022/08/01 00:27:56;;;;;;;;;;;;;;;26.92;43.85;99806.59;2092791;28;20009;-44
2022/08/01 00:28:56;;;;;;;;;;;;;;;26.93;43.75;99822.13;2089486;28;19930;-43
2022/08/01 00:29:57;;;;;;;;;;;;;;;26.91;44.00;99822.34;2093288;28;19915;-42
2022/08/01 00:30:57;;;;;;;;;;;;;;;26.91;43.70;99816.81;2093467;28;19916;-43
2022/08/01 00:31:57;;;;;;;;;;;;;;;26.92;44.09;99817.66;2092205;28;20246;-42
2022/08/01 00:32:58;;;;;;;;;;;;;;;26.91;44.02;99807.66;2094489;28;19923;-42
2022/08/01 00:33:58;;;;;;;;;;;;;;;26.90;44.12;99809.59;2088979;28;20514;-43
2022/08/01 00:34:59;;;;;;;;;;;;;;;26.91;43.92;99805.75;2093528;28;20333;-43
2022/08/01 00:35:59;;;;;;;;;;;;;;;26.90;43.79;99806.81;2092902;28;19942;-43
2022/08/01 00:36:59;;;;;;;;;;;;;;;26.91;43.79;99804.91;2093180;28;19912;-46
2022/08/01 00:37:59;;;;;;;;;;;;;;;26.90;44.00;99804.06;2090435;28;19920;-43
2022/08/01 00:39:00;;;;;;;;;;;;;;;26.90;43.83;99808.72;2091572;28;19916;-44
2022/08/01 00:40:00;;;;;;;;;;;;;;;26.90;44.03;99801.28;2090585;28;20968;-43
2022/08/01 00:41:01;;;;;;;;;;;;;;;26.90;44.00;99809.59;2092030;28;20352;-43
2022/08/01 00:42:08;;;;;;;;;;;;;;;26.90;44.07;99809.59;2093718;28;20334;-50
2022/08/01 00:43:09;;;;;;;;;;;;;;;26.90;44.17;99817.03;2090156;28;20015;-44
2022/08/01 00:44:09;;;;;;;;;;;;;;;26.89;44.15;99807.84;2090571;28;19916;-46
2022/08/01 00:45:11;;;;;;;;;;;;;;;26.89;44.14;99807.84;2092895;28;19920;-45
2022/08/01 00:46:11;;;;;;;;;;;;;;;26.90;44.01;99804.06;2090470;28;19916;-43
2022/08/01 00:47:12;;;;;;;;;;;;;;;26.89;43.86;99807.84;2090270;28;19923;-43
2022/08/01 00:48:12;;;;;;;;;;;;;;;26.89;43.88;99802.31;2094191;28;19965;-42
2022/08/01 00:49:12;;;;;;;;;;;;;;;26.90;43.85;99806.81;2091477;28;19916;-45
2022/08/01 00:50:13;;;;;;;;;;;;;;;26.88;43.98;99802.56;2094518;28;19920;-44
2022/08/01 00:51:13;;;;;;;;;;;;;;;26.89;44.06;99805.09;2091964;28;19923;-44
2022/08/01 00:52:13;;;;;;;;;;;;;;;26.89;44.14;99802.31;2093840;28;19955;-43
2022/08/01 00:53:14;;;;;;;;;;;;;;;26.89;44.14;99799.56;2092623;28;19959;-47
2022/08/01 00:54:14;;;;;;;;;;;;;;;26.90;43.92;99803.19;2091637;28;19924;-45
2022/08/01 00:55:15;;;;;;;;;;;;;;;26.89;43.93;99799.56;2094251;28;19926;-43
2022/08/01 00:56:15;;;;;;;;;;;;;;;26.88;44.13;99795.09;2093601;28;19944;-43
2022/08/01 00:57:16;;;;;;;;;;;;;;;26.88;43.86;99795.09;2092853;28;19916;-43
2022/08/01 00:58:17;;;;;;;;;;;;;;;26.89;43.94;99795.94;2094762;28;19920;-43
2022/08/01 00:59:17;;;;;;;;;;;;;;;26.89;44.06;99796.78;2092421;28;19909;-43
2022/08/01 01:00:18;;;;;;;;;;;;;;;26.88;44.08;99789.56;2094212;28;19908;-43
2022/08/01 01:01:20;;;;;;;;;;;;;;;26.89;44.13;99790.41;2093326;28;19927;-43
2022/08/01 01:02:21;;;;;;;;;;;;;;;26.87;43.94;99787.84;2092431;28;20338;-43
2022/08/01 01:03:22;;;;;;;;;;;;;;;26.88;44.08;99800.63;2095611;28;19951;-43
2022/08/01 01:04:22;;;;;;;;;;;;;;;26.88;43.88;99795.09;2090685;28;19923;-45
2022/08/01 01:05:23;;;;;;;;;;;;;;;26.88;44.04;99797.88;2090939;28;19916;-44
2022/08/01 01:06:30;;;;;;;;;;;;;;;26.89;43.92;99795.94;2087718;28;19922;-45
2022/08/01 01:07:30;;;;;;;;;;;;;;;26.88;44.19;99795.09;2090464;28;19920;-44
2022/08/01 01:08:35;;;;;;;;;;;;;;;26.88;44.14;99795.09;2091211;28;20007;-45
2022/08/01 01:09:38;;;;;;;;;;;;;;;26.88;43.87;99800.63;2088237;28;20006;-43
2022/08/01 01:10:47;;;;;;;;;;;;;;;26.89;44.17;99796.78;2092021;28;19958;-43
2022/08/01 01:11:54;;;;;;;;;;;;;;;26.89;44.01;99785.72;2091177;28;20471;-43
2022/08/01 01:13:08;;;;;;;;;;;;;;;26.88;44.20;99797.88;2093161;28;19916;-43
2022/08/01 01:14:13;;;;;;;;;;;;;;;26.89;43.96;99805.09;2089894;28;20326;-42
2022/08/01 01:15:22;;;;;;;;;;;;;;;26.87;43.91;99798.91;2093318;28;21186;-43
2022/08/01 01:16:24;;;;;;;;;;;;;;;26.88;44.21;99803.41;2088256;28;19923;-42
2022/08/01 01:17:28;;;;;;;;;;;;;;;26.88;44.20;99802.56;2093144;28;19943;-43
2022/08/01 01:18:37;;;;;;;;;;;;;;;26.87;44.01;99798.91;2094734;28;19920;-44
2022/08/01 01:19:41;;;;;;;;;;;;;;;26.88;44.35;99800.63;2089145;28;19935;-43
2022/08/01 01:20:46;;;;;;;;;;;;;;;26.86;44.41;99797.22;2090358;28;19916;-44
2022/08/01 01:22:06;;;;;;;;;;;;;;;26.88;44.04;99800.63;2093421;28;19955;-42
2022/08/01 01:23:41;;;;;;;;;;;;;;;26.89;44.23;99807.00;2093139;28;20181;-43
2022/08/01 01:24:50;;;;;;;;;;;;;;;26.86;43.98;99799.13;2064687;28;20278;-42
2022/08/01 01:26:09;;;;;;;;;;;;;;;26.86;44.27;99802.75;2066006;28;20303;-45
2022/08/01 01:27:15;;;;;;;;;;;;;;;26.86;44.17;99808.28;2080614;28;20454;-43
2022/08/01 01:28:45;;;;;;;;;;;;;;;26.86;44.05;99805.50;2088475;28;19916;-42
2022/08/01 01:29:48;;;;;;;;;;;;;;;26.87;44.23;99803.59;2063464;28;19921;-44
2022/08/01 01:30:50;;;;;;;;;;;;;;;26.86;44.06;99811.03;2069201;28;19913;-44
2022/08/01 01:32:09;;;;;;;;;;;;;;;26.87;44.07;99809.13;2086170;28;20349;-43
2022/08/01 01:33:11;;;;;;;;;;;;;;;26.85;44.33;99814.88;2092591;28;19916;-43
2022/08/01 01:34:12;;;;;;;;;;;;;;;26.85;44.01;99812.13;2091645;28;20142;-44
2022/08/01 01:35:20;;;;;;;;;;;;;;;26.85;44.29;99812.13;2090835;28;20366;-44
2022/08/01 01:36:22;;;;;;;;;;;;;;;26.86;44.02;99813.81;2090322;28;19920;-44
2022/08/01 01:37:25;;;;;;;;;;;;;;;26.85;43.99;99811.25;2093064;28;20235;-42
2022/08/01 01:38:28;;;;;;;;;;;;;;;26.86;44.23;99816.56;2089383;28;19920;-42
2022/08/01 01:39:29;;;;;;;;;;;;;;;26.86;43.96;99807.44;2089688;28;20109;-43
2022/08/01 01:40:30;;;;;;;;;;;;;;;26.87;44.04;99811.91;2092930;28;19916;-43
2022/08/01 01:41:31;;;;;;;;;;;;;;;26.86;44.22;99811.03;2089306;28;19951;-43
2022/08/01 01:42:33;;;;;;;;;;;;;;;26.85;44.07;99812.13;2093625;28;19927;-44
2022/08/01 01:43:35;;;;;;;;;;;;;;;26.85;44.23;99812.13;2093827;28;19927;-43
2022/08/01 01:44:36;;;;;;;;;;;;;;;26.86;44.18;99808.28;2091782;28;19951;-43
2022/08/01 01:45:37;;;;;;;;;;;;;;;26.85;44.29;99806.59;2093458;28;19965;-43
2022/08/01 01:46:38;;;;;;;;;;;;;;;26.86;44.07;99807.44;2087818;28;19970;-44
2022/08/01 01:47:39;;;;;;;;;;;;;;;26.85;44.23;99812.13;2092913;28;19916;-43
2022/08/01 01:48:42;;;;;;;;;;;;;;;26.85;44.09;99805.72;2093601;28;19916;-44
2022/08/01 01:49:46;;;;;;;;;;;;;;;26.84;44.29;99804.88;2089389;28;20131;-44
2022/08/01 01:50:48;;;;;;;;;;;;;;;26.86;44.09;99816.56;2094778;28;19915;-45
2022/08/01 01:51:50;;;;;;;;;;;;;;;26.85;44.28;99817.66;2092544;28;19912;-42
2022/08/01 01:52:50;;;;;;;;;;;;;;;26.84;44.04;99810.41;2096028;28;20062;-43
2022/08/01 01:53:52;;;;;;;;;;;;;;;26.85;44.07;99812.13;2089533;28;19916;-43
2022/08/01 01:54:54;;;;;;;;;;;;;;;26.84;44.23;99815.94;2092526;28;20317;-43
2022/08/01 01:55:55;;;;;;;;;;;;;;;26.84;44.33;99815.09;2088955;28;20031;-43
2022/08/01 01:57:00;;;;;;;;;;;;;;;26.86;44.14;99815.72;2083886;28;19916;-42
2022/08/01 01:58:01;;;;;;;;;;;;;;;26.86;44.29;99822.09;2091597;28;20670;-43
2022/08/01 01:59:02;;;;;;;;;;;;;;;26.84;44.30;99815.94;2089498;28;19916;-43
2022/08/01 02:00:03;;;;;;;;;;;;;;;26.86;44.38;99819.34;2092361;28;19908;-44
2022/08/01 02:01:03;;;;;;;;;;;;;;;26.84;44.36;99827.00;2090092;28;20739;-46
2022/08/01 02:02:05;;;;;;;;;;;;;;;26.84;44.06;99815.94;2090302;28;19971;-43
2022/08/01 02:03:06;;;;;;;;;;;;;;;26.85;44.40;99825.94;2090944;28;19916;-44
2022/08/01 02:04:07;;;;;;;;;;;;;;;26.84;44.24;99817.84;2093638;28;19933;-44
2022/08/01 02:05:09;;;;;;;;;;;;;;;26.84;44.30;99821.47;2094015;28;19949;-44
2022/08/01 02:06:11;;;;;;;;;;;;;;;26.83;44.46;99818.91;2090578;28;20038;-43
2022/08/01 02:07:14;;;;;;;;;;;;;;;26.84;44.38;99827.00;2089742;28;19916;-44
2022/08/01 02:08:16;;;;;;;;;;;;;;;26.82;44.36;99815.28;2085065;28;19919;-42
2022/08/01 02:09:18;;;;;;;;;;;;;;;26.84;44.18;99821.47;2087466;28;19920;-43
2022/08/01 02:10:19;;;;;;;;;;;;;;;26.83;44.39;99817.00;2089877;28;19940;-43
2022/08/01 02:11:23;;;;;;;;;;;;;;;26.84;44.28;99815.94;2093962;28;20383;-43
2022/08/01 02:12:24;;;;;;;;;;;;;;;26.82;44.36;99812.50;2086306;28;19921;-43
2022/08/01 02:13:25;;;;;;;;;;;;;;;26.83;44.29;99821.69;2090232;28;19916;-43
2022/08/01 02:14:28;;;;;;;;;;;;;;;26.82;44.36;99812.50;2090524;28;20074;-43
2022/08/01 02:15:29;;;;;;;;;;;;;;;26.82;44.41;99818.03;2088891;28;19917;-43
2022/08/01 02:16:33;;;;;;;;;;;;;;;26.82;44.16;99814.44;2089186;28;19908;-43
2022/08/01 02:17:37;;;;;;;;;;;;;;;26.81;44.45;99816.34;2093293;28;20149;-44
2022/08/01 02:18:38;;;;;;;;;;;;;;;26.83;44.54;99822.53;2092343;28;19969;-43
2022/08/01 02:19:38;;;;;;;;;;;;;;;26.82;44.45;99823.56;2092631;28;19961;-42
2022/08/01 02:20:39;;;;;;;;;;;;;;;26.83;44.23;99824.44;2091786;28;20242;-43
2022/08/01 02:21:45;;;;;;;;;;;;;;;26.83;44.30;99825.31;2092736;28;19928;-44
2022/08/01 02:22:57;;;;;;;;;;;;;;;26.82;44.30;99823.56;2094404;28;19916;-42
2022/08/01 02:24:02;;;;;;;;;;;;;;;26.82;44.17;99826.34;2094016;28;19922;-44
2022/08/01 02:25:07;;;;;;;;;;;;;;;26.82;44.17;99826.34;2092479;28;20355;-43
2022/08/01 02:26:10;;;;;;;;;;;;;;;26.82;44.41;99826.34;2088882;28;19916;-44
2022/08/01 02:27:29;;;;;;;;;;;;;;;26.82;44.13;99831.88;2087352;28;19927;-42
2022/08/01 02:28:35;;;;;;;;;;;;;;;26.83;44.19;99830.81;2089560;28;20342;-43
2022/08/01 02:29:49;;;;;;;;;;;;;;;26.82;44.41;99834.63;2085960;28;19983;-42
2022/08/01 02:30:50;;;;;;;;;;;;;;;26.82;44.34;99834.63;2090436;28;19916;-43
2022/08/01 02:31:51;;;;;;;;;;;;;;;26.82;44.15;99831.88;2089322;28;19912;-44
2022/08/01 02:33:00;;;;;;;;;;;;;;;26.82;44.20;99834.63;2093246;28;19955;-43
2022/08/01 02:34:04;;;;;;;;;;;;;;;26.82;44.45;99831.88;2093336;28;19951;-42
2022/08/01 02:35:07;;;;;;;;;;;;;;;26.82;44.47;99831.88;2089896;28;19917;-42
2022/08/01 02:36:08;;;;;;;;;;;;;;;26.82;44.48;99829.09;2091178;28;20405;-43
2022/08/01 02:37:09;;;;;;;;;;;;;;;26.82;44.47;99831.03;2093793;28;19923;-43
2022/08/01 02:38:11;;;;;;;;;;;;;;;26.81;44.48;99824.66;2092178;28;20310;-42
2022/08/01 02:39:13;;;;;;;;;;;;;;;26.81;44.26;99827.41;2091999;28;20505;-42
2022/08/01 02:40:17;;;;;;;;;;;;;;;26.82;44.32;99829.09;2094282;28;19922;-42
2022/08/01 02:41:19;;;;;;;;;;;;;;;26.81;44.19;99827.41;2088035;28;20061;-43
2022/08/01 02:42:21;;;;;;;;;;;;;;;26.82;44.33;99831.88;2091996;28;19923;-43
2022/08/01 02:43:23;;;;;;;;;;;;;;;26.82;44.27;99828.25;2087738;28;20156;-42
2022/08/01 02:44:25;;;;;;;;;;;;;;;26.81;44.25;99830.19;2092138;28;19945;-42
2022/08/01 02:45:26;;;;;;;;;;;;;;;26.81;44.25;99832.94;2093165;28;19961;-43
2022/08/01 02:46:34;;;;;;;;;;;;;;;26.81;44.31;99832.94;2093193;28;19916;-42
2022/08/01 02:47:36;;;;;;;;;;;;;;;26.82;44.34;99836.56;2091409;28;20550;-44
2022/08/01 02:48:38;;;;;;;;;;;;;;;26.81;44.25;99840.41;2093792;28;19967;-42
2022/08/01 02:49:45;;;;;;;;;;;;;;;26.80;44.36;99842.31;2091323;28;19959;-44
2022/08/01 02:50:47;;;;;;;;;;;;;;;26.80;44.54;99831.25;2092775;28;20482;-42
2022/08/01 02:51:48;;;;;;;;;;;;;;;26.80;44.46;99836.78;2093407;28;19916;-43
2022/08/01 02:52:50;;;;;;;;;;;;;;;26.80;44.48;99836.78;2090144;28;20290;-42
2022/08/01 02:53:51;;;;;;;;;;;;;;;26.80;44.53;99839.53;2090426;28;19916;-42
2022/08/01 02:54:54;;;;;;;;;;;;;;;26.80;44.55;99835.91;2092663;28;19916;-43
2022/08/01 02:55:55;;;;;;;;;;;;;;;26.80;44.31;99834.00;2091014;28;19920;-42
2022/08/01 02:56:56;;;;;;;;;;;;;;;26.80;44.58;99844.19;2092347;28;19916;-42
2022/08/01 02:57:57;;;;;;;;;;;;;;;26.79;44.36;99837.81;2091882;28;20250;-43
2022/08/01 02:58:58;;;;;;;;;;;;;;;26.80;44.63;99836.78;2090935;28;19960;-43
2022/08/01 02:59:59;;;;;;;;;;;;;;;26.79;44.69;99835.06;2094384;28;20493;-43
2022/08/01 03:01:00;;;;;;;;;;;;;;;26.78;44.59;99836.13;2091979;28;19916;-42
2022/08/01 03:02:01;;;;;;;;;;;;;;;26.80;44.70;99838.66;2089223;28;20505;-42
2022/08/01 03:03:04;;;;;;;;;;;;;;;26.80;44.38;99850.59;2093000;28;19922;-43
2022/08/01 03:04:05;;;;;;;;;;;;;;;26.80;44.56;99841.44;2089177;28;20195;-42
2022/08/01 03:05:08;;;;;;;;;;;;;;;26.79;44.60;99840.59;2093664;28;19922;-42
2022/08/01 03:06:08;;;;;;;;;;;;;;;26.80;44.38;99835.91;2091717;28;19951;-42
2022/08/01 03:07:10;;;;;;;;;;;;;;;26.80;44.57;99844.19;2093047;28;19912;-42
2022/08/01 03:08:11;;;;;;;;;;;;;;;26.79;44.58;99835.06;2095584;28;20289;-43
2022/08/01 03:09:12;;;;;;;;;;;;;;;26.79;44.56;99840.59;2088935;28;19965;-43
2022/08/01 03:10:14;;;;;;;;;;;;;;;26.80;44.60;99839.53;2093263;28;19962;-43
2022/08/01 03:11:14;;;;;;;;;;;;;;;26.80;44.46;99839.53;2092778;28;19996;-42
2022/08/01 03:12:19;;;;;;;;;;;;;;;26.79;44.57;99835.06;2091660;28;20295;-42
2022/08/01 03:13:21;;;;;;;;;;;;;;;26.79;44.55;99842.50;2093722;28;20373;-42
2022/08/01 03:14:23;;;;;;;;;;;;;;;26.79;44.57;99843.34;2085635;28;19924;-42
2022/08/01 03:15:25;;;;;;;;;;;;;;;26.79;44.32;99840.59;2092501;28;20161;-43
2022/08/01 03:16:26;;;;;;;;;;;;;;;26.78;44.49;99838.91;2091329;28;19916;-43
2022/08/01 03:17:28;;;;;;;;;;;;;;;26.79;44.61;99846.13;2090003;28;19916;-43
2022/08/01 03:18:29;;;;;;;;;;;;;;;26.79;44.35;99843.34;2092003;28;19920;-43
2022/08/01 03:19:30;;;;;;;;;;;;;;;26.79;44.28;99839.75;2090942;28;19916;-43
2022/08/01 03:20:32;;;;;;;;;;;;;;;26.79;44.65;99839.75;2092518;28;19931;-44
2022/08/01 03:21:34;;;;;;;;;;;;;;;26.78;44.58;99836.13;2091905;28;20146;-44
2022/08/01 03:22:35;;;;;;;;;;;;;;;26.78;44.59;99840.78;2092251;28;20437;-43
2022/08/01 03:23:36;;;;;;;;;;;;;;;26.79;44.37;99834.22;2089786;28;19969;-43
2022/08/01 03:24:39;;;;;;;;;;;;;;;26.79;44.58;99834.22;2094182;28;20119;-42
2022/08/01 03:25:40;;;;;;;;;;;;;;;26.78;44.43;99833.38;2091641;28;19916;-44
2022/08/01 03:26:41;;;;;;;;;;;;;;;26.79;44.36;99842.50;2093799;28;19915;-43
2022/08/01 03:27:43;;;;;;;;;;;;;;;26.79;44.36;99832.28;2082098;28;20015;-44
2022/08/01 03:28:44;;;;;;;;;;;;;;;26.78;44.35;99838.03;2092512;28;19995;-44
2022/08/01 03:29:45;;;;;;;;;;;;;;;26.78;44.47;99838.03;2089511;28;20619;-43
2022/08/01 03:30:45;;;;;;;;;;;;;;;26.77;44.54;99831.63;2085656;28;20380;-43
2022/08/01 03:31:47;;;;;;;;;;;;;;;26.78;44.54;99832.50;2086270;28;19917;-42
2022/08/01 03:32:48;;;;;;;;;;;;;;;26.77;44.41;99834.41;2091467;28;19908;-43
2022/08/01 03:33:48;;;;;;;;;;;;;;;26.76;44.66;99829.94;2090332;28;20536;-42
2022/08/01 03:34:49;;;;;;;;;;;;;;;26.77;44.54;99834.41;2089291;28;19973;-44
2022/08/01 03:35:53;;;;;;;;;;;;;;;26.75;44.67;99822.69;2092732;28;19950;-43
2022/08/01 03:37:01;;;;;;;;;;;;;;;26.75;44.45;99827.38;2090570;28;19916;-43
2022/08/01 03:38:02;;;;;;;;;;;;;;;26.75;44.50;99831.00;2089407;28;19962;-42
2022/08/01 03:39:04;;;;;;;;;;;;;;;26.76;44.72;99829.09;2091394;28;19937;-42
2022/08/01 03:40:08;;;;;;;;;;;;;;;26.76;44.62;99835.47;2093003;28;19986;-43
2022/08/01 03:41:11;;;;;;;;;;;;;;;26.75;44.67;99839.28;2091993;28;19916;-43
2022/08/01 03:42:14;;;;;;;;;;;;;;;26.76;44.67;99841.00;2087501;28;19924;-44
2022/08/01 03:43:35;;;;;;;;;;;;;;;26.77;44.67;99841.84;2092592;28;20006;-43
2022/08/01 03:44:41;;;;;;;;;;;;;;;26.77;44.52;99839.09;2088987;28;19920;-42
2022/08/01 03:45:45;;;;;;;;;;;;;;;26.75;44.49;99831.00;2090878;28;20489;-43
2022/08/01 03:46:51;;;;;;;;;;;;;;;26.77;44.34;99844.63;2084970;28;19917;-43
2022/08/01 03:47:53;;;;;;;;;;;;;;;26.76;44.51;99838.25;2084984;28;20203;-43
2022/08/01 03:48:55;;;;;;;;;;;;;;;26.77;44.63;99847.38;2093407;28;20002;-44
2022/08/01 03:49:57;;;;;;;;;;;;;;;26.78;44.52;99849.06;2085181;28;20010;-42
2022/08/01 03:50:58;;;;;;;;;;;;;;;26.77;44.65;99847.38;2088801;28;20002;-43
2022/08/01 03:52:00;;;;;;;;;;;;;;;26.76;44.36;99840.16;2099112;28;19908;-41
2022/08/01 03:53:02;;;;;;;;;;;;;;;26.75;44.52;99839.28;2089832;28;19964;-43
2022/08/01 03:54:04;;;;;;;;;;;;;;;26.75;44.60;99836.53;2086709;28;19976;-43
2022/08/01 03:55:07;;;;;;;;;;;;;;;26.75;44.43;99839.28;2093194;28;19939;-43
2022/08/01 03:56:09;;;;;;;;;;;;;;;26.76;44.46;99849.31;2089855;28;19984;-47
2022/08/01 03:57:10;;;;;;;;;;;;;;;26.76;44.67;99852.06;2086290;28;19920;-43
2022/08/01 03:58:11;;;;;;;;;;;;;;;26.77;44.63;99852.91;2087491;28;20515;-44
2022/08/01 03:59:11;;;;;;;;;;;;;;;26.75;44.65;99853.09;2089938;28;19961;-42
2022/08/01 04:00:12;;;;;;;;;;;;;;;26.75;44.41;99844.81;2091463;28;19920;-43
2022/08/01 04:01:14;;;;;;;;;;;;;;;26.75;44.67;99847.59;2093082;28;19916;-43
2022/08/01 04:02:14;;;;;;;;;;;;;;;26.76;44.65;99845.69;2090974;28;19962;-43
2022/08/01 04:03:15;;;;;;;;;;;;;;;26.76;44.66;99852.06;2094085;28;19919;-44
2022/08/01 04:04:15;;;;;;;;;;;;;;;26.75;44.73;99843.97;2087869;28;19921;-43
2022/08/01 04:05:16;;;;;;;;;;;;;;;26.76;44.66;99852.06;2091138;28;20280;-44
2022/08/01 04:06:17;;;;;;;;;;;;;;;26.74;44.34;99845.88;2097410;28;20342;-42
2022/08/01 04:07:21;;;;;;;;;;;;;;;26.75;44.42;99855.88;2090016;28;19909;-43
2022/08/01 04:08:21;;;;;;;;;;;;;;;26.75;44.58;99850.34;2087815;28;19930;-42
2022/08/01 04:09:21;;;;;;;;;;;;;;;26.75;44.65;99850.34;2089453;28;20507;-43
2022/08/01 04:10:22;;;;;;;;;;;;;;;26.75;44.62;99858.63;2086967;28;20359;-43
2022/08/01 04:11:24;;;;;;;;;;;;;;;26.74;44.73;99854.19;2081864;28;20007;-43
2022/08/01 04:12:25;;;;;;;;;;;;;;;26.74;44.65;99854.19;2082988;28;20188;-43
2022/08/01 04:13:25;;;;;;;;;;;;;;;26.73;44.43;99861.63;2088485;28;20103;-42
2022/08/01 04:14:26;;;;;;;;;;;;;;;26.73;44.59;99864.41;2091412;28;20177;-42
2022/08/01 04:15:27;;;;;;;;;;;;;;;26.73;44.74;99858.03;2085986;28;19931;-43
2022/08/01 04:16:27;;;;;;;;;;;;;;;26.73;44.54;99858.03;2088096;28;20078;-43
2022/08/01 04:17:28;;;;;;;;;;;;;;;26.72;44.82;99857.13;2092451;28;19992;-43
2022/08/01 04:18:28;;;;;;;;;;;;;;;26.73;44.54;99855.25;2087083;28;22690;-44
2022/08/01 04:19:28;;;;;;;;;;;;;;;26.73;44.45;99858.88;2090528;28;19959;-43
2022/08/01 04:20:28;;;;;;;;;;;;;;;26.72;44.53;99859.06;2090664;28;19962;-43
2022/08/01 04:21:30;;;;;;;;;;;;;;;26.72;44.83;99859.06;2090087;28;20005;-43
2022/08/01 04:22:35;;;;;;;;;;;;;;;26.73;44.59;99869.94;2085822;28;20762;-43
2022/08/01 04:23:38;;;;;;;;;;;;;;;26.72;44.61;99862.66;2090326;28;19926;-43
2022/08/01 04:24:39;;;;;;;;;;;;;;;26.72;44.90;99859.06;2088877;28;19935;-43
2022/08/01 04:25:42;;;;;;;;;;;;;;;26.73;44.91;99863.56;2085194;28;19908;-43
2022/08/01 04:26:44;;;;;;;;;;;;;;;26.72;44.66;99861.81;2093255;28;20525;-43
2022/08/01 04:27:46;;;;;;;;;;;;;;;26.72;44.97;99853.53;2092539;28;20093;-43
2022/08/01 04:28:48;;;;;;;;;;;;;;;26.72;44.97;99857.13;2089026;28;19920;-42
2022/08/01 04:29:51;;;;;;;;;;;;;;;26.72;44.91;99859.06;2093435;28;19966;-42
2022/08/01 04:30:54;;;;;;;;;;;;;;;26.71;44.91;99855.44;2073279;28;20026;-43
2022/08/01 04:31:55;;;;;;;;;;;;;;;26.72;44.92;99861.81;2083577;28;19999;-43
2022/08/01 04:32:57;;;;;;;;;;;;;;;26.72;44.69;99862.66;2090171;28;19973;-42
2022/08/01 04:33:59;;;;;;;;;;;;;;;26.72;44.84;99853.53;2089599;28;20250;-44
2022/08/01 04:35:00;;;;;;;;;;;;;;;26.71;44.59;99849.91;2084726;28;19939;-43
2022/08/01 04:36:01;;;;;;;;;;;;;;;26.72;44.55;99859.91;2089119;28;19916;-43
2022/08/01 04:37:02;;;;;;;;;;;;;;;26.72;44.59;99856.28;2092576;28;19947;-43
2022/08/01 04:38:03;;;;;;;;;;;;;;;26.72;44.77;99853.53;2084099;28;19920;-43
2022/08/01 04:39:04;;;;;;;;;;;;;;;26.72;44.63;99861.81;2089424;28;19923;-44
2022/08/01 04:40:06;;;;;;;;;;;;;;;26.72;44.54;99867.34;2084701;28;20027;-43
2022/08/01 04:41:06;;;;;;;;;;;;;;;26.73;44.67;99866.31;2091811;28;20582;-42
2022/08/01 04:42:06;;;;;;;;;;;;;;;26.72;44.86;99861.81;2094370;28;20386;-43
2022/08/01 04:43:07;;;;;;;;;;;;;;;26.72;44.54;99861.81;2086185;28;19917;-43
2022/08/01 04:44:08;;;;;;;;;;;;;;;26.72;44.67;99861.81;2087428;28;19928;-43
2022/08/01 04:45:08;;;;;;;;;;;;;;;26.71;44.58;99857.38;2091288;28;19917;-42
2022/08/01 04:46:09;;;;;;;;;;;;;;;26.71;44.89;99871.19;2084237;28;19977;-43
2022/08/01 04:47:10;;;;;;;;;;;;;;;26.71;44.81;99865.66;2089773;28;19924;-43
2022/08/01 04:48:13;;;;;;;;;;;;;;;26.72;44.50;99867.34;2089109;28;20197;-43
2022/08/01 04:49:16;;;;;;;;;;;;;;;26.72;44.67;99861.81;2093180;28;20063;-43
2022/08/01 04:50:16;;;;;;;;;;;;;;;26.72;44.57;99870.13;2095600;28;19912;-44
2022/08/01 04:51:18;;;;;;;;;;;;;;;26.72;44.55;99867.34;2091886;28;20318;-43
2022/08/01 04:52:18;;;;;;;;;;;;;;;26.71;44.83;99869.28;2089793;28;20455;-44
2022/08/01 04:53:21;;;;;;;;;;;;;;;26.71;44.58;99872.03;2092981;28;20237;-47
2022/08/01 04:54:21;;;;;;;;;;;;;;;26.71;44.81;99865.66;2091692;28;19927;-43
2022/08/01 04:55:22;;;;;;;;;;;;;;;26.70;44.61;99870.34;2092596;28;19916;-43
2022/08/01 04:56:22;;;;;;;;;;;;;;;26.71;44.59;99871.19;2093751;28;19959;-44
2022/08/01 04:57:22;;;;;;;;;;;;;;;26.70;44.52;99863.94;2088837;28;19916;-43
2022/08/01 04:58:22;;;;;;;;;;;;;;;26.70;44.91;99875.00;2093460;28;19924;-43
2022/08/01 04:59:41;;;;;;;;;;;;;;;26.70;44.70;99880.53;2092957;28;19912;-44
2022/08/01 05:00:41;;;;;;;;;;;;;;;26.68;44.62;99877.13;2086781;28;19928;-43
2022/08/01 05:01:42;;;;;;;;;;;;;;;26.69;44.97;99874.16;2086451;28;20350;-42
2022/08/01 05:02:42;;;;;;;;;;;;;;;26.69;44.75;99876.06;2093601;28;19940;-46
2022/08/01 05:03:43;;;;;;;;;;;;;;;26.69;45.10;99884.38;2092885;28;20007;-43
2022/08/01 05:04:45;;;;;;;;;;;;;;;26.69;45.00;99878.84;2095480;28;20371;-43
2022/08/01 05:05:45;;;;;;;;;;;;;;;26.68;44.90;99885.44;2084893;28;19916;-43
2022/08/01 05:06:45;;;;;;;;;;;;;;;26.68;45.05;99882.66;2090549;28;19919;-43
2022/08/01 05:07:46;;;;;;;;;;;;;;;26.68;45.19;99888.19;2093496;28;19916;-43
2022/08/01 05:08:46;;;;;;;;;;;;;;;26.69;44.90;99889.91;2090306;28;20241;-44
2022/08/01 05:09:46;;;;;;;;;;;;;;;26.68;44.83;99885.44;2091453;28;20797;-44
2022/08/01 05:10:47;;;;;;;;;;;;;;;26.69;45.22;99884.38;2087523;28;20120;-44
2022/08/01 05:11:47;;;;;;;;;;;;;;;26.69;45.13;99889.91;2089158;28;19958;-43
2022/08/01 05:12:48;;;;;;;;;;;;;;;26.68;44.90;99886.28;2092860;28;19916;-44
2022/08/01 05:13:48;;;;;;;;;;;;;;;26.68;44.86;99888.19;2093874;28;19927;-44
2022/08/01 05:14:48;;;;;;;;;;;;;;;26.68;44.82;99891.81;2093838;28;20304;-44
2022/08/01 05:15:48;;;;;;;;;;;;;;;26.70;45.10;99883.28;2091351;28;20413;-44
2022/08/01 05:16:49;;;;;;;;;;;;;;;26.69;45.14;99889.91;2090459;28;19994;-42
2022/08/01 05:17:49;;;;;;;;;;;;;;;26.70;45.06;99902.66;2092686;28;19986;-42
2022/08/01 05:18:49;;;;;;;;;;;;;;;26.69;44.98;99889.91;2093464;28;19916;-43
2022/08/01 05:19:50;;;;;;;;;;;;;;;26.69;44.82;99887.13;2094443;28;20400;-44
2022/08/01 05:20:51;;;;;;;;;;;;;;;26.69;45.05;99896.28;2091392;28;20330;-43
2022/08/01 05:21:52;;;;;;;;;;;;;;;26.69;44.86;99895.41;2086975;28;19909;-42
2022/08/01 05:22:52;;;;;;;;;;;;;;;26.69;44.83;99895.41;2093697;28;19919;-43
2022/08/01 05:23:53;;;;;;;;;;;;;;;26.69;44.83;99896.28;2092880;28;19908;-44
2022/08/01 05:24:53;;;;;;;;;;;;;;;26.69;45.06;99892.66;2092280;28;19990;-43